Time;durP1;ratioP1;P1;durP2;ratioP2;P2;SDS_P1;SDS_P2;PMS_P1;PMS_P2;Temp;Humidity;BMP_temperature;BMP_pressure;BME280_temperature;BME280_humidity;BME280_pressure;Samples;Min_cycle;Max_cycle;Signal;HPM_P1;HPM_P2
2023/12/12 00:00:50;;;;;;;16.02;2.60;;;8.00;99.90;;;;;;5088838;28;20024;-63
2023/12/12 00:03:16;;;;;;;13.07;2.30;;;8.00;99.90;;;;;;5086867;28;20391;-63
2023/12/12 00:05:42;;;;;;;16.08;2.53;;;7.90;99.90;;;;;;5086646;28;20028;-63
2023/12/12 00:08:07;;;;;;;17.80;2.50;;;7.90;99.90;;;;;;5088072;28;20119;-65
2023/12/12 00:10:34;;;;;;;14.65;2.67;;;7.80;99.90;;;;;;5088510;28;20469;-63
2023/12/12 00:12:59;;;;;;;14.32;3.10;;;7.80;99.90;;;;;;5088214;28;20122;-63
2023/12/12 00:15:25;;;;;;;10.95;2.40;;;7.70;99.90;;;;;;5089397;28;20146;-62
2023/12/12 00:17:50;;;;;;;19.77;3.15;;;7.70;99.90;;;;;;5096406;28;20059;-66
2023/12/12 00:20:16;;;;;;;11.20;2.88;;;7.60;99.90;;;;;;5088853;28;20418;-63
2023/12/12 00:22:42;;;;;;;20.33;2.90;;;7.60;99.90;;;;;;5088147;28;20025;-62
2023/12/12 00:25:07;;;;;;;19.02;2.97;;;7.60;99.90;;;;;;5088631;28;20484;-65
2023/12/12 00:27:33;;;;;;;17.20;3.35;;;7.60;99.90;;;;;;5102352;28;20550;-63
2023/12/12 00:29:59;;;;;;;15.10;2.97;;;7.60;99.90;;;;;;5095391;28;20409;-63
2023/12/12 00:32:24;;;;;;;13.90;2.55;;;7.50;99.90;;;;;;5101651;28;20783;-62
2023/12/12 00:34:51;;;;;;;15.05;3.13;;;7.40;99.90;;;;;;5095738;28;20032;-63
2023/12/12 00:37:16;;;;;;;11.77;3.47;;;7.40;99.90;;;;;;5093570;28;20193;-63
2023/12/12 00:39:42;;;;;;;10.00;3.05;;;7.30;99.90;;;;;;5100127;28;20521;-62
2023/12/12 00:42:08;;;;;;;8.32;2.83;;;7.30;99.90;;;;;;5089380;28;20020;-62
2023/12/12 00:44:34;;;;;;;14.52;2.92;;;7.30;99.90;;;;;;5084938;28;20121;-62
2023/12/12 00:47:00;;;;;;;12.15;2.72;;;7.30;99.90;;;;;;5086863;28;20072;-62
2023/12/12 00:49:26;;;;;;;8.55;2.55;;;7.30;99.90;;;;;;5085226;28;20098;-63
2023/12/12 00:51:51;;;;;;;10.32;2.60;;;7.30;99.90;;;;;;5091489;28;21352;-63
2023/12/12 00:54:17;;;;;;;10.55;2.35;;;7.30;99.90;;;;;;5086601;28;20043;-63
2023/12/12 00:56:46;;;;;;;13.25;2.97;;;7.30;99.90;;;;;;5092901;28;20036;-63
2023/12/12 00:59:12;;;;;;;13.10;2.60;;;7.30;99.90;;;;;;5099582;28;20035;-65
2023/12/12 01:01:38;;;;;;;17.70;3.20;;;7.40;99.90;;;;;;5090597;28;20032;-63
2023/12/12 01:04:03;;;;;;;13.63;2.95;;;7.40;99.90;;;;;;5089491;28;20036;-62
2023/12/12 01:06:29;;;;;;;7.50;2.10;;;7.40;99.90;;;;;;5091236;28;20035;-62
2023/12/12 01:08:55;;;;;;;11.75;2.22;;;7.40;99.90;;;;;;5090770;28;20470;-62
2023/12/12 01:11:20;;;;;;;8.38;2.40;;;7.40;99.90;;;;;;5090333;28;20028;-63
2023/12/12 01:13:48;;;;;;;11.77;2.55;;;7.50;99.90;;;;;;5089985;28;20036;-65
2023/12/12 01:16:13;;;;;;;11.75;2.35;;;7.50;99.90;;;;;;5089612;28;20081;-65
2023/12/12 01:18:39;;;;;;;7.38;2.30;;;7.50;99.90;;;;;;5092616;28;20374;-63
2023/12/12 01:21:05;;;;;;;11.35;2.90;;;7.50;99.90;;;;;;5091355;28;20577;-62
2023/12/12 01:24:07;;;;;;;7.28;2.10;;;7.50;99.90;;;;;;5088977;28;20027;-63
2023/12/12 01:26:32;;;;;;;6.35;2.33;;;7.50;99.90;;;;;;5035020;28;20103;-63
2023/12/12 01:28:58;;;;;;;8.93;2.10;;;7.60;99.90;;;;;;5077769;28;20107;-63
2023/12/12 01:31:23;;;;;;;9.13;2.47;;;7.60;99.90;;;;;;5088231;28;20538;-63
2023/12/12 01:33:49;;;;;;;12.95;2.72;;;7.60;99.90;;;;;;5107492;28;20066;-63
2023/12/12 01:36:15;;;;;;;10.70;2.60;;;7.60;99.90;;;;;;5092928;28;20504;-65
2023/12/12 01:38:40;;;;;;;11.27;2.40;;;7.60;99.90;;;;;;5096308;28;20036;-63
2023/12/12 01:41:06;;;;;;;17.42;2.67;;;7.70;99.90;;;;;;5092740;28;20392;-63
2023/12/12 01:43:33;;;;;;;8.95;2.00;;;7.70;99.90;;;;;;5099008;28;20135;-63
2023/12/12 01:46:01;;;;;;;12.85;2.00;;;7.70;99.90;;;;;;5091685;28;20056;-63
2023/12/12 01:48:28;;;;;;;12.48;2.20;;;7.70;99.90;;;;;;5095636;28;20031;-64
2023/12/12 01:50:54;;;;;;;15.20;2.90;;;7.80;99.90;;;;;;5096013;28;20055;-63
2023/12/12 01:53:23;;;;;;;11.60;2.67;;;7.80;99.90;;;;;;5089154;28;20027;-63
2023/12/12 01:55:51;;;;;;;10.93;2.08;;;7.80;99.90;;;;;;5090207;28;20040;-63
2023/12/12 01:58:18;;;;;;;9.15;2.05;;;7.80;99.90;;;;;;5087613;28;20049;-65
2023/12/12 02:00:44;;;;;;;11.00;2.42;;;7.70;99.90;;;;;;5088968;28;20039;-63
2023/12/12 02:03:10;;;;;;;12.07;2.25;;;7.80;99.90;;;;;;5098184;28;20055;-63
2023/12/12 02:05:39;;;;;;;7.20;1.92;;;7.70;99.90;;;;;;5088853;28;20023;-64
2023/12/12 02:08:05;;;;;;;12.75;2.50;;;7.80;99.90;;;;;;5090923;28;20058;-63
2023/12/12 02:10:31;;;;;;;7.60;2.08;;;7.80;99.90;;;;;;5088702;28;20028;-64
2023/12/12 02:12:56;;;;;;;9.93;2.30;;;7.80;99.90;;;;;;5088938;28;20119;-63
2023/12/12 02:15:23;;;;;;;8.95;2.38;;;7.80;99.90;;;;;;5095446;28;20454;-63
2023/12/12 02:17:49;;;;;;;10.25;2.45;;;7.80;99.90;;;;;;5090158;28;20107;-64
2023/12/12 02:20:14;;;;;;;9.07;2.50;;;7.80;99.90;;;;;;5089305;28;20115;-65
2023/12/12 02:22:40;;;;;;;7.05;2.20;;;7.80;99.90;;;;;;5104188;28;20089;-62
2023/12/12 02:25:06;;;;;;;7.70;2.33;;;7.80;99.90;;;;;;5090702;28;20034;-63
2023/12/12 02:27:32;;;;;;;9.48;2.03;;;7.90;99.90;;;;;;5087357;28;20500;-63
2023/12/12 02:29:57;;;;;;;10.90;2.45;;;7.90;99.90;;;;;;5094367;28;20095;-63
2023/12/12 02:32:23;;;;;;;9.15;2.03;;;7.80;99.90;;;;;;5089921;28;20024;-65
2023/12/12 02:34:49;;;;;;;9.98;2.60;;;7.80;99.90;;;;;;5092262;28;20027;-63
2023/12/12 02:37:14;;;;;;;8.15;1.90;;;7.80;99.90;;;;;;5089964;28;20039;-62
2023/12/12 02:39:41;;;;;;;8.20;2.08;;;7.80;99.90;;;;;;5090775;28;20034;-63
2023/12/12 02:42:07;;;;;;;10.98;2.00;;;7.80;99.90;;;;;;5088141;28;20056;-63
2023/12/12 02:44:33;;;;;;;14.90;2.28;;;7.80;99.90;;;;;;5091944;28;20090;-63
2023/12/12 02:46:58;;;;;;;6.85;1.92;;;7.80;99.90;;;;;;5089898;28;20466;-63
2023/12/12 02:49:24;;;;;;;11.10;2.00;;;7.80;99.90;;;;;;5088418;28;20024;-63
2023/12/12 02:51:49;;;;;;;13.05;2.22;;;7.80;99.90;;;;;;5089680;28;20085;-63
2023/12/12 02:54:15;;;;;;;8.57;1.90;;;7.80;99.90;;;;;;5089693;28;20032;-63
2023/12/12 02:56:41;;;;;;;13.02;1.85;;;7.80;99.90;;;;;;5088634;28;20071;-63
2023/12/12 02:59:06;;;;;;;8.93;2.22;;;7.70;99.90;;;;;;5088682;28;20021;-63
2023/12/12 03:01:32;;;;;;;7.10;1.90;;;7.70;99.90;;;;;;5087836;28;20035;-63
2023/12/12 03:03:57;;;;;;;7.68;2.20;;;7.70;99.90;;;;;;5087372;28;20035;-63
2023/12/12 03:06:23;;;;;;;9.68;2.30;;;7.70;99.90;;;;;;5087919;28;20402;-62
2023/12/12 03:08:49;;;;;;;6.38;1.98;;;7.70;99.90;;;;;;5088750;28;20221;-63
2023/12/12 03:11:14;;;;;;;8.20;1.98;;;7.60;99.90;;;;;;5089139;28;20106;-62
2023/12/12 03:13:40;;;;;;;12.43;1.92;;;7.60;99.90;;;;;;5091032;28;20682;-62
2023/12/12 03:16:06;;;;;;;8.00;2.00;;;7.50;99.90;;;;;;5091939;28;20478;-62
2023/12/12 03:18:31;;;;;;;11.82;2.25;;;7.40;99.90;;;;;;5086769;28;20035;-63
2023/12/12 03:20:57;;;;;;;10.90;1.90;;;7.40;99.90;;;;;;5086075;28;20024;-63
2023/12/12 03:23:22;;;;;;;9.02;2.30;;;7.40;99.90;;;;;;5089075;28;20028;-65
2023/12/12 03:25:48;;;;;;;8.35;2.60;;;7.30;99.90;;;;;;5092779;28;20393;-63
2023/12/12 03:28:14;;;;;;;9.90;2.33;;;7.40;99.90;;;;;;5087659;28;20035;-62
2023/12/12 03:30:39;;;;;;;7.80;1.88;;;7.40;99.90;;;;;;5087654;28;20496;-62
2023/12/12 03:33:06;;;;;;;9.70;2.95;;;7.40;99.90;;;;;;5097995;28;20028;-62
2023/12/12 03:35:31;;;;;;;7.00;1.80;;;7.40;99.90;;;;;;5088961;28;20394;-62
2023/12/12 03:37:57;;;;;;;9.38;2.10;;;7.40;99.90;;;;;;5090328;28;20020;-63
2023/12/12 03:40:23;;;;;;;10.55;2.13;;;7.40;99.90;;;;;;5086300;28;20541;-65
2023/12/12 03:42:48;;;;;;;10.98;1.95;;;7.50;99.90;;;;;;5092295;28;20024;-63
2023/12/12 03:45:14;;;;;;;9.20;2.38;;;7.50;99.90;;;;;;5087606;28;20446;-62
2023/12/12 03:47:40;;;;;;;9.45;2.22;;;7.50;99.90;;;;;;5085922;28;20183;-63
2023/12/12 03:50:06;;;;;;;7.25;2.03;;;7.50;99.90;;;;;;5089072;28;20444;-64
2023/12/12 03:52:32;;;;;;;9.05;2.00;;;7.50;99.90;;;;;;5088183;28;20032;-63
2023/12/12 03:54:58;;;;;;;8.88;2.15;;;7.50;99.90;;;;;;5086579;28;20036;-63
2023/12/12 03:57:23;;;;;;;8.85;2.13;;;7.60;99.90;;;;;;5086668;28;20394;-65
2023/12/12 03:59:49;;;;;;;16.88;2.40;;;7.50;99.90;;;;;;5087685;28;20032;-63
2023/12/12 04:02:14;;;;;;;6.85;2.30;;;7.50;99.90;;;;;;5088050;28;20374;-63
2023/12/12 04:04:40;;;;;;;9.30;2.17;;;7.60;99.90;;;;;;5089759;28;20052;-64
2023/12/12 04:07:06;;;;;;;11.13;1.98;;;7.60;99.90;;;;;;5090869;28;20024;-63
2023/12/12 04:09:31;;;;;;;6.68;1.88;;;7.60;99.90;;;;;;5093557;28;20049;-63
2023/12/12 04:11:57;;;;;;;16.13;2.30;;;7.60;99.90;;;;;;5085345;28;20458;-63
2023/12/12 04:14:23;;;;;;;7.30;2.20;;;7.50;99.90;;;;;;5082673;28;20127;-65
2023/12/12 04:16:48;;;;;;;9.07;2.05;;;7.50;99.90;;;;;;5090716;28;20032;-63
2023/12/12 04:19:14;;;;;;;7.93;2.60;;;7.50;99.90;;;;;;5088499;28;20461;-63
2023/12/12 04:21:43;;;;;;;18.55;2.50;;;7.50;99.90;;;;;;5087282;28;20035;-63
2023/12/12 04:24:09;;;;;;;9.00;2.35;;;7.50;99.90;;;;;;5094936;28;20529;-63
2023/12/12 04:26:35;;;;;;;6.55;2.40;;;7.50;99.90;;;;;;5100979;28;20114;-63
2023/12/12 04:29:00;;;;;;;7.63;2.20;;;7.50;99.90;;;;;;5088355;28;20032;-64
2023/12/12 04:31:26;;;;;;;10.65;2.25;;;7.50;99.90;;;;;;5092989;28;20146;-66
2023/12/12 04:33:52;;;;;;;7.00;2.70;;;7.50;99.90;;;;;;5089022;28;20102;-63
2023/12/12 04:36:17;;;;;;;8.65;2.08;;;7.50;99.90;;;;;;5108980;28;20044;-63
2023/12/12 04:38:43;;;;;;;9.18;2.45;;;7.50;99.90;;;;;;5093168;28;20044;-63
2023/12/12 04:41:09;;;;;;;8.45;2.55;;;7.50;99.90;;;;;;5091784;28;20440;-63
2023/12/12 04:43:35;;;;;;;6.43;2.00;;;7.40;99.90;;;;;;5096553;28;20806;-62
2023/12/12 04:46:01;;;;;;;13.30;2.20;;;7.40;99.90;;;;;;5091434;28;20060;-63
2023/12/12 04:48:27;;;;;;;9.48;2.22;;;7.40;99.90;;;;;;5105938;28;20061;-65
2023/12/12 04:50:52;;;;;;;11.98;2.25;;;7.40;99.90;;;;;;5105596;28;20024;-63
2023/12/12 04:53:18;;;;;;;9.23;2.45;;;7.40;99.90;;;;;;5102826;28;20420;-66
2023/12/12 04:55:44;;;;;;;10.07;2.45;;;7.40;99.90;;;;;;5090674;28;20631;-63
2023/12/12 04:58:09;;;;;;;10.20;2.65;;;7.40;99.90;;;;;;5097128;28;20040;-63
2023/12/12 05:00:35;;;;;;;9.35;2.72;;;7.40;99.90;;;;;;5089605;28;20377;-63
2023/12/12 05:03:01;;;;;;;7.35;2.00;;;7.30;99.90;;;;;;5091801;28;20036;-63
2023/12/12 05:05:27;;;;;;;7.88;2.28;;;7.20;99.90;;;;;;5086180;28;20043;-65
2023/12/12 05:07:52;;;;;;;10.73;2.10;;;7.20;99.90;;;;;;5079838;28;20416;-63
2023/12/12 05:10:18;;;;;;;11.73;2.42;;;7.20;99.90;;;;;;5075945;28;20409;-63
2023/12/12 05:12:43;;;;;;;13.60;2.25;;;7.10;99.90;;;;;;5078946;28;20032;-62
2023/12/12 05:15:09;;;;;;;8.75;2.70;;;7.00;99.90;;;;;;5091717;28;20039;-63
2023/12/12 05:17:35;;;;;;;8.93;2.30;;;7.00;99.90;;;;;;5096597;28;20392;-63
2023/12/12 05:20:03;;;;;;;10.05;2.42;;;6.90;99.90;;;;;;5094998;28;20032;-63
2023/12/12 05:22:28;;;;;;;10.10;2.35;;;6.90;99.90;;;;;;5077213;28;20031;-65
2023/12/12 05:24:54;;;;;;;12.10;3.60;;;6.90;99.90;;;;;;5091081;28;20462;-63
2023/12/12 05:27:20;;;;;;;9.48;3.28;;;6.70;99.90;;;;;;5089470;28;20043;-64
2023/12/12 05:29:46;;;;;;;13.40;3.97;;;6.60;99.90;;;;;;5096877;28;20030;-63
2023/12/12 05:32:12;;;;;;;10.43;3.58;;;6.60;99.90;;;;;;5092301;28;20044;-62
2023/12/12 05:34:37;;;;;;;13.00;3.95;;;6.50;99.90;;;;;;5089897;28;20028;-63
2023/12/12 05:37:03;;;;;;;12.43;3.20;;;6.60;99.90;;;;;;5091078;28;20036;-62
2023/12/12 05:39:29;;;;;;;5.47;2.63;;;6.60;99.90;;;;;;5090169;28;20030;-64
2023/12/12 05:41:55;;;;;;;7.45;2.42;;;6.50;99.90;;;;;;5090778;28;20086;-63
2023/12/12 05:44:21;;;;;;;9.63;2.90;;;6.50;99.90;;;;;;5090246;28;20048;-62
2023/12/12 05:46:47;;;;;;;9.60;3.20;;;6.50;99.90;;;;;;5089927;28;20145;-62
2023/12/12 05:49:13;;;;;;;15.52;3.63;;;6.50;99.90;;;;;;5090763;28;20065;-62
2023/12/12 05:51:39;;;;;;;11.82;3.05;;;6.60;99.90;;;;;;5092412;28;20416;-63
2023/12/12 05:54:06;;;;;;;11.65;3.42;;;6.60;99.90;;;;;;5109785;28;20396;-62
2023/12/12 05:56:32;;;;;;;11.85;3.08;;;6.50;99.90;;;;;;5110279;28;20035;-63
2023/12/12 05:58:58;;;;;;;11.20;2.95;;;6.40;99.90;;;;;;5111057;28;20032;-63
2023/12/12 06:01:23;;;;;;;7.18;2.47;;;6.40;99.90;;;;;;5102593;28;20031;-62
2023/12/12 06:03:49;;;;;;;10.82;2.58;;;6.30;99.90;;;;;;5092381;28;20470;-62
2023/12/12 06:06:14;;;;;;;12.82;3.40;;;6.30;99.90;;;;;;5072379;28;20067;-62
2023/12/12 06:08:41;;;;;;;8.38;2.88;;;6.40;99.90;;;;;;5089619;28;20028;-62
2023/12/12 06:11:07;;;;;;;11.60;3.08;;;6.20;99.90;;;;;;5090508;28;20058;-62
2023/12/12 06:13:33;;;;;;;8.88;3.42;;;6.00;99.90;;;;;;5090533;28;20085;-64
2023/12/12 06:15:58;;;;;;;12.10;4.53;;;6.00;99.90;;;;;;5088838;28;20444;-63
2023/12/12 06:18:26;;;;;;;20.95;5.97;;;6.00;99.90;;;;;;5091837;28;20465;-62
2023/12/12 06:20:51;;;;;;;22.33;6.00;;;5.90;99.90;;;;;;5088973;28;20051;-62
2023/12/12 06:23:17;;;;;;;11.05;3.15;;;5.80;99.90;;;;;;5106937;28;20393;-62
2023/12/12 06:25:43;;;;;;;10.35;3.25;;;5.70;99.90;;;;;;5109678;28;20024;-62
2023/12/12 06:28:09;;;;;;;10.88;3.25;;;5.80;99.90;;;;;;5091893;28;20024;-63
2023/12/12 06:30:34;;;;;;;12.02;3.10;;;5.80;99.90;;;;;;5089204;28;20458;-62
2023/12/12 06:33:00;;;;;;;16.52;2.88;;;5.70;99.90;;;;;;5089554;28;20545;-62
2023/12/12 06:35:25;;;;;;;7.15;2.30;;;5.80;99.90;;;;;;5088628;28;20042;-62
2023/12/12 06:37:51;;;;;;;12.02;3.83;;;5.80;99.90;;;;;;5088818;28;20046;-62
2023/12/12 06:40:17;;;;;;;13.15;3.92;;;5.90;99.90;;;;;;5089908;28;20024;-62
2023/12/12 06:42:44;;;;;;;10.10;3.65;;;5.90;99.90;;;;;;5089217;28;20042;-62
2023/12/12 06:45:10;;;;;;;17.30;5.00;;;5.90;99.90;;;;;;5089195;28;20532;-62
2023/12/12 06:47:36;;;;;;;14.63;4.82;;;5.90;99.90;;;;;;5088993;28;20055;-63
2023/12/12 06:50:05;;;;;;;18.27;6.43;;;5.90;99.90;;;;;;5089376;28;20523;-62
2023/12/12 06:52:32;;;;;;;12.10;4.13;;;5.90;99.90;;;;;;5096057;28;20028;-64
2023/12/12 06:54:57;;;;;;;11.40;3.30;;;6.00;99.90;;;;;;5102032;28;20499;-63
2023/12/12 06:57:23;;;;;;;10.32;2.97;;;6.00;99.90;;;;;;5109615;28;20027;-62
2023/12/12 06:59:49;;;;;;;9.48;2.75;;;6.00;99.90;;;;;;5098406;28;20059;-62
2023/12/12 07:02:14;;;;;;;7.93;2.83;;;6.00;99.90;;;;;;5088225;28;20024;-62
2023/12/12 07:04:40;;;;;;;13.13;4.90;;;6.10;99.90;;;;;;5098246;28;20030;-62
2023/12/12 07:07:06;;;;;;;12.45;4.70;;;6.00;99.90;;;;;;5109688;28;20485;-63
2023/12/12 07:09:31;;;;;;;16.77;5.53;;;6.00;99.90;;;;;;5109572;28;20074;-64
2023/12/12 07:11:57;;;;;;;13.20;4.63;;;6.00;99.90;;;;;;5108625;28;20081;-62
2023/12/12 07:14:22;;;;;;;13.82;4.05;;;5.90;99.90;;;;;;5100967;28;20051;-63
2023/12/12 07:16:48;;;;;;;10.43;4.63;;;6.00;99.90;;;;;;5088346;28;20036;-62
2023/12/12 07:19:14;;;;;;;13.07;4.28;;;5.90;99.90;;;;;;5089298;28;20084;-62
2023/12/12 07:21:41;;;;;;;13.55;3.97;;;5.90;99.90;;;;;;5093498;28;20716;-62
2023/12/12 07:24:07;;;;;;;11.73;3.67;;;5.90;99.90;;;;;;5098332;28;20035;-63
2023/12/12 07:26:33;;;;;;;9.52;3.78;;;5.90;99.90;;;;;;5109324;28;20048;-64
2023/12/12 07:28:59;;;;;;;10.65;4.00;;;5.90;99.90;;;;;;5100880;28;20035;-63
2023/12/12 07:31:25;;;;;;;14.68;5.22;;;5.90;99.90;;;;;;5089001;28;20028;-62
2023/12/12 07:33:51;;;;;;;7.70;3.38;;;5.80;99.90;;;;;;5093653;28;20035;-62
2023/12/12 07:36:16;;;;;;;11.45;3.55;;;5.70;99.90;;;;;;5109253;28;20027;-63
2023/12/12 07:38:42;;;;;;;7.88;3.47;;;5.60;99.90;;;;;;5108129;28;20123;-62
2023/12/12 07:41:09;;;;;;;9.18;3.88;;;5.60;99.90;;;;;;5109081;28;20038;-64
2023/12/12 07:43:34;;;;;;;9.40;4.15;;;5.50;99.90;;;;;;5104762;28;20509;-67
2023/12/12 07:46:00;;;;;;;11.18;4.80;;;5.30;99.90;;;;;;5108198;28;20059;-62
2023/12/12 07:48:26;;;;;;;8.63;4.88;;;5.40;99.90;;;;;;5109199;28;20027;-62
2023/12/12 07:50:51;;;;;;;10.45;4.57;;;5.40;99.90;;;;;;5108380;28;20016;-62
2023/12/12 07:53:17;;;;;;;7.47;3.60;;;5.50;99.90;;;;;;5107807;28;20016;-62
2023/12/12 07:55:43;;;;;;;13.30;3.95;;;5.60;99.90;;;;;;5088877;28;20093;-62
2023/12/12 07:58:09;;;;;;;11.30;3.78;;;5.40;99.90;;;;;;5088220;28;20066;-62
2023/12/12 08:00:34;;;;;;;8.70;3.40;;;5.30;99.90;;;;;;5088702;28;20020;-64
2023/12/12 08:03:00;;;;;;;9.40;3.65;;;5.20;99.90;;;;;;5086613;28;20378;-62
2023/12/12 08:05:26;;;;;;;9.80;3.10;;;5.20;99.90;;;;;;5108075;28;20548;-62
2023/12/12 08:07:52;;;;;;;14.75;3.85;;;5.30;99.90;;;;;;5112404;28;20042;-62
2023/12/12 08:10:18;;;;;;;13.13;3.90;;;5.30;99.90;;;;;;5112880;28;20019;-62
2023/12/12 08:12:43;;;;;;;8.52;3.25;;;5.40;99.90;;;;;;5108344;28;20032;-62
2023/12/12 08:15:09;;;;;;;11.20;4.10;;;5.40;99.90;;;;;;5093209;28;20028;-62
2023/12/12 08:17:34;;;;;;;12.63;4.60;;;5.50;99.90;;;;;;5092589;28;20028;-62
2023/12/12 08:20:00;;;;;;;9.50;4.35;;;5.50;99.90;;;;;;5091648;28;20032;-63
2023/12/12 08:22:26;;;;;;;16.55;6.57;;;5.40;99.90;;;;;;5092563;28;20114;-63
2023/12/12 08:24:54;;;;;;;12.68;5.40;;;5.40;99.90;;;;;;5093028;28;20420;-62
2023/12/12 08:27:20;;;;;;;16.52;6.70;;;5.50;99.90;;;;;;5092289;28;20024;-62
2023/12/12 08:29:47;;;;;;;17.33;7.88;;;5.60;99.90;;;;;;5091437;28;20854;-62
2023/12/12 08:32:13;;;;;;;31.88;9.98;;;5.50;99.90;;;;;;5092483;28;20521;-62
2023/12/12 08:34:38;;;;;;;11.55;4.50;;;5.70;99.90;;;;;;5091694;28;20107;-65
2023/12/12 08:37:04;;;;;;;14.25;4.55;;;5.70;99.90;;;;;;5111779;28;20027;-62
2023/12/12 08:39:33;;;;;;;10.38;4.68;;;5.70;99.90;;;;;;5112300;28;20451;-62
2023/12/12 08:41:58;;;;;;;15.32;6.10;;;5.70;99.90;;;;;;5100260;28;20032;-63
2023/12/12 08:44:24;;;;;;;12.88;5.35;;;5.80;99.90;;;;;;5091651;28;20040;-64
2023/12/12 08:46:50;;;;;;;12.45;5.53;;;5.80;99.90;;;;;;5108664;28;20065;-63
2023/12/12 08:49:19;;;;;;;13.70;5.20;;;5.90;99.90;;;;;;5112441;28;20027;-63
2023/12/12 08:51:44;;;;;;;12.23;4.63;;;6.00;99.90;;;;;;5095983;28;20415;-63
2023/12/12 08:54:10;;;;;;;14.52;5.70;;;6.10;99.90;;;;;;5108791;28;20080;-63
2023/12/12 08:56:38;;;;;;;9.73;3.70;;;6.20;99.90;;;;;;5102217;28;20039;-64
2023/12/12 08:59:04;;;;;;;14.98;4.45;;;6.10;99.90;;;;;;5091128;28;20497;-62
2023/12/12 09:01:30;;;;;;;12.98;4.63;;;6.10;99.90;;;;;;5092083;28;20069;-63
2023/12/12 09:03:56;;;;;;;15.00;4.13;;;6.10;99.90;;;;;;5104952;28;20549;-63
2023/12/12 09:06:22;;;;;;;9.70;4.07;;;6.10;99.90;;;;;;5110697;28;20056;-63
2023/12/12 09:08:48;;;;;;;15.27;6.20;;;6.20;99.90;;;;;;5111237;28;20350;-63
2023/12/12 09:11:13;;;;;;;13.15;4.53;;;6.20;99.90;;;;;;5101449;28;20036;-62
2023/12/12 09:13:41;;;;;;;10.77;3.88;;;6.20;99.90;;;;;;5094818;28;20143;-65
2023/12/12 09:16:07;;;;;;;14.05;4.07;;;6.10;99.90;;;;;;5090242;28;20060;-63
2023/12/12 09:18:33;;;;;;;14.63;5.40;;;6.10;99.90;;;;;;5091506;28;20434;-63
2023/12/12 09:20:58;;;;;;;15.77;6.28;;;6.10;99.90;;;;;;5090548;28;20378;-63
2023/12/12 09:23:27;;;;;;;20.90;6.00;;;6.10;99.90;;;;;;5092459;28;20046;-63
2023/12/12 09:25:54;;;;;;;16.08;5.15;;;6.10;99.90;;;;;;5089980;28;20485;-63
2023/12/12 09:28:21;;;;;;;18.13;7.72;;;6.20;99.90;;;;;;5091262;28;20028;-63
2023/12/12 09:30:46;;;;;;;20.83;8.07;;;6.40;99.90;;;;;;5090491;28;20024;-63
2023/12/12 09:33:12;;;;;;;19.13;7.82;;;6.60;99.90;;;;;;5091594;28;20382;-63
2023/12/12 09:35:38;;;;;;;13.27;6.15;;;6.70;99.90;;;;;;5090899;28;20028;-63
2023/12/12 09:38:03;;;;;;;14.02;6.80;;;6.70;99.90;;;;;;5090058;28;20028;-63
2023/12/12 09:40:29;;;;;;;25.55;9.60;;;6.70;99.90;;;;;;5090860;28;20082;-63
2023/12/12 09:42:56;;;;;;;35.50;14.30;;;6.70;99.90;;;;;;5098220;28;20028;-62
2023/12/12 09:45:23;;;;;;;26.88;10.40;;;6.80;99.90;;;;;;5109550;28;20052;-63
2023/12/12 09:47:50;;;;;;;14.52;6.65;;;6.90;99.90;;;;;;5110351;28;20035;-63
2023/12/12 09:50:16;;;;;;;12.43;6.70;;;6.90;99.90;;;;;;5111232;28;20483;-63
2023/12/12 09:52:46;;;;;;;16.48;6.10;;;6.70;99.90;;;;;;5106355;28;20028;-65
2023/12/12 09:55:13;;;;;;;16.25;7.05;;;6.70;99.90;;;;;;5090557;28;20523;-63
2023/12/12 09:57:38;;;;;;;26.52;11.48;;;6.70;99.90;;;;;;5090666;28;20115;-63
2023/12/12 10:00:08;;;;;;;14.95;6.78;;;7.00;99.90;;;;;;5089882;28;20099;-64
2023/12/12 10:02:37;;;;;;;13.93;5.60;;;7.20;99.90;;;;;;5092917;28;20071;-63
2023/12/12 10:05:04;;;;;;;18.52;6.07;;;7.20;99.90;;;;;;5110245;28;20035;-63
2023/12/12 10:07:31;;;;;;;14.52;5.75;;;7.20;99.90;;;;;;5109549;28;20028;-63
2023/12/12 10:09:57;;;;;;;11.35;5.70;;;7.30;99.90;;;;;;5102813;28;20032;-63
2023/12/12 10:12:22;;;;;;;9.75;4.72;;;7.50;99.90;;;;;;5090421;28;20054;-63
2023/12/12 10:14:48;;;;;;;15.60;6.38;;;7.70;99.90;;;;;;5069396;28;20027;-63
2023/12/12 10:17:15;;;;;;;13.05;5.90;;;7.80;99.90;;;;;;5070108;28;20039;-63
2023/12/12 10:19:41;;;;;;;13.88;6.20;;;7.90;99.90;;;;;;5068649;28;20360;-62
2023/12/12 10:22:08;;;;;;;14.15;5.90;;;7.90;99.90;;;;;;5069268;28;20031;-63
2023/12/12 10:24:35;;;;;;;13.88;5.97;;;7.90;99.90;;;;;;5099537;28;20111;-62
2023/12/12 10:27:01;;;;;;;11.80;5.32;;;7.90;99.90;;;;;;5089420;28;20068;-62
2023/12/12 10:29:28;;;;;;;10.63;4.90;;;7.90;99.90;;;;;;5089792;28;20490;-63
2023/12/12 10:31:54;;;;;;;15.52;6.10;;;8.00;99.90;;;;;;5087658;28;20105;-62
2023/12/12 10:34:24;;;;;;;22.02;6.13;;;8.10;99.90;;;;;;5104914;28;20548;-65
2023/12/12 10:36:50;;;;;;;11.90;5.57;;;8.00;99.90;;;;;;5109444;28;20030;-65
2023/12/12 10:39:16;;;;;;;10.43;5.38;;;7.90;99.90;;;;;;5110260;28;20043;-64
2023/12/12 10:42:00;;;;;;;12.20;5.68;;;7.90;99.90;;;;;;5110225;28;20028;-65
2023/12/12 10:44:34;;;;;;;9.65;4.50;;;7.90;99.90;;;;;;5094520;28;20515;-63
2023/12/12 10:47:02;;;;;;;9.73;4.35;;;7.90;99.90;;;;;;5089577;28;20040;-62
2023/12/12 10:49:33;;;;;;;10.98;4.80;;;8.10;99.90;;;;;;5106143;28;20526;-63
2023/12/12 10:52:05;;;;;;;8.98;3.88;;;8.20;99.90;;;;;;5109261;28;20373;-65
2023/12/12 10:54:35;;;;;;;9.98;4.55;;;8.20;99.90;;;;;;5110016;28;20058;-65
2023/12/12 10:57:02;;;;;;;10.43;5.60;;;8.30;99.90;;;;;;5109016;28;20032;-65
2023/12/12 10:59:29;;;;;;;11.48;5.50;;;8.30;99.90;;;;;;5094352;28;20043;-65
2023/12/12 11:01:57;;;;;;;12.60;5.55;;;8.20;99.90;;;;;;5089077;28;20043;-64
2023/12/12 11:04:24;;;;;;;11.40;5.20;;;8.00;99.90;;;;;;5089213;28;20493;-63
2023/12/12 11:06:51;;;;;;;9.20;4.70;;;8.00;99.90;;;;;;5088709;28;20073;-65
2023/12/12 11:09:18;;;;;;;13.25;5.20;;;8.00;99.90;;;;;;5100493;28;20488;-63
2023/12/12 11:11:48;;;;;;;10.20;5.00;;;8.10;99.90;;;;;;5109760;28;20030;-63
2023/12/12 11:14:16;;;;;;;15.90;5.97;;;8.20;99.90;;;;;;5103253;28;20020;-63
2023/12/12 11:16:47;;;;;;;15.57;6.40;;;8.20;99.90;;;;;;5089311;28;20044;-63
2023/12/12 11:19:16;;;;;;;14.88;5.85;;;8.20;99.90;;;;;;5096238;28;20028;-63
2023/12/12 11:21:42;;;;;;;13.43;6.05;;;8.20;99.90;;;;;;5109626;28;20068;-64
2023/12/12 11:24:07;;;;;;;15.88;6.65;;;8.20;99.90;;;;;;5108729;28;20031;-64
2023/12/12 11:26:34;;;;;;;16.85;6.50;;;8.10;99.90;;;;;;5109401;28;20063;-63
2023/12/12 11:29:00;;;;;;;10.68;6.13;;;8.10;99.90;;;;;;5105570;28;20060;-63
2023/12/12 11:31:33;;;;;;;11.15;4.80;;;8.20;99.90;;;;;;5103855;28;20028;-63
2023/12/12 11:34:07;;;;;;;7.30;3.67;;;8.30;99.90;;;;;;5088253;28;20111;-63
2023/12/12 11:36:57;;;;;;;8.35;3.83;;;8.40;99.90;;;;;;5088911;28;20024;-63
2023/12/12 11:39:31;;;;;;;8.40;4.28;;;8.50;99.90;;;;;;5088183;28;20478;-63
2023/12/12 11:41:58;;;;;;;8.15;4.38;;;8.60;99.90;;;;;;5096554;28;20409;-63
2023/12/12 11:44:24;;;;;;;29.65;15.52;;;8.60;99.90;;;;;;5097287;28;20509;-63
2023/12/12 11:46:52;;;;;;;23.38;11.63;;;8.70;99.90;;;;;;5088463;28;20043;-65
2023/12/12 11:49:26;;;;;;;28.33;15.50;;;8.80;99.90;;;;;;5088867;28;20028;-63
2023/12/12 11:51:53;;;;;;;22.67;10.07;;;8.90;99.90;;;;;;5091957;28;20488;-65
2023/12/12 11:54:25;;;;;;;31.02;14.10;;;8.90;99.90;;;;;;5109088;28;20030;-63
2023/12/12 11:57:01;;;;;;;38.75;14.80;;;9.00;99.90;;;;;;5108544;28;20063;-65
2023/12/12 11:59:28;;;;;;;29.23;13.13;;;9.10;99.90;;;;;;5077096;22;20520;-65
2023/12/12 12:01:55;;;;;;;23.80;10.77;;;9.10;99.90;;;;;;5061663;28;20068;-65
2023/12/12 12:04:21;;;;;;;25.77;11.00;;;9.20;99.90;;;;;;5060600;28;20045;-63
2023/12/12 12:06:48;;;;;;;29.80;12.38;;;9.20;99.90;;;;;;5056384;28;20044;-64
2023/12/12 12:09:15;;;;;;;24.15;10.50;;;9.20;99.90;;;;;;5055993;28;20033;-64
2023/12/12 12:11:46;;;;;;;20.67;9.93;;;9.20;99.90;;;;;;5057202;28;20025;-63
2023/12/12 12:14:13;;;;;;;24.30;9.75;;;9.20;99.90;;;;;;5048349;28;20041;-63
2023/12/12 12:16:39;;;;;;;23.00;11.32;;;9.20;99.90;;;;;;5056813;28;20048;-63
2023/12/12 12:19:34;;;;;;;27.80;13.15;;;9.10;99.90;;;;;;5062098;28;20037;-63
2023/12/12 12:22:12;;;;;;;24.88;12.88;;;9.00;99.90;;;;;;5049416;28;20484;-66
2023/12/12 12:24:46;;;;;;;35.78;17.92;;;9.00;99.90;;;;;;5063080;28;20566;-65
2023/12/12 12:27:12;;;;;;;26.60;14.98;;;9.10;99.90;;;;;;5063648;28;20035;-65
2023/12/12 12:29:38;;;;;;;29.38;14.20;;;9.00;99.90;;;;;;5061882;28;20048;-66
2023/12/12 12:32:11;;;;;;;20.40;10.93;;;9.10;99.90;;;;;;5053947;28;20052;-65
2023/12/12 12:34:38;;;;;;;13.45;7.15;;;9.10;99.90;;;;;;5059260;28;20347;-65
2023/12/12 12:37:03;;;;;;;11.10;6.20;;;9.20;99.90;;;;;;5051837;28;20565;-64
2023/12/12 12:39:29;;;;;;;9.93;5.65;;;9.20;99.90;;;;;;5063301;28;20044;-66
2023/12/12 12:41:55;;;;;;;6.35;3.85;;;9.30;99.90;;;;;;5066374;28;20033;-66
2023/12/12 12:44:21;;;;;;;9.13;4.85;;;9.30;99.90;;;;;;5050362;28;20029;-66
2023/12/12 12:46:51;;;;;;;6.88;3.83;;;9.40;99.90;;;;;;5061828;28;20482;-65